Tiempo atmosférico en la estación meteorológica de Cala, Huelva (618 m.)



Fecha
DESCASC
Temp. máxima en grados centígrados (hora)
DESCASC
Temp. mínima en grados centígrados (hora)
DESCASC
Temp. media en grados centígrados
DESCASC
Racha de viento máxima en m/sg (hora)
DESCASC
Velocidad máxima media en intervalos de 10 minutos(hora)
DESCASC
Precipitaciones diarias en mm
DESCASC
Precipitaciones de 00:00 a 06:00 en mm
DESCASC
Precipitaciones de 06:00 a 12:00 en mm
DESCASC
Precipitaciones de 12:00 a 18:00 en mm
DESCASC
Precipitaciones de 18:00 a 24:00 en mm
DESCASC
14-10-2018 18.4 (00:00) 9.6 (09:40) 14 12.78 (16:50) 6.39 (16:50) 18.8 18.6 0.2 0 0
13-10-2018 23.5 (16:40) 13.6 (08:20) 18.6 7.78 (16:30) 2.22 (19:50) 0 0 0 0 0
12-10-2018 22 (15:40) 16.5 (23:59) 19.3 4.44 (00:10) 1.67 (03:50) 4.8 2.8 1.8 0 0.2
11-10-2018 19.8 (14:40) 16.1 (07:30) 17.9 7.5 (19:40) 2.78 (12:10) 16 0.2 10 1 4.8
10-10-2018 21.5 (17:00) 14.9 (00:50) 18.2 6.94 (18:20) 2.5 (16:50) 0 0 0 0 0
08-10-2018 23.3 (18:00) 10.5 (08:30) 16.9 5.28 (17:50) 2.22 (11:20) 0 0 0 0 0
07-10-2018 25.2 (16:40) 12.8 (08:50) 19 8.61 (14:40) 4.17 (14:40) 0 0 0 0 0
06-10-2018 26.7 (18:00) 12.9 (07:30) 19.8 7.22 (18:20) 3.33 (19:10) 0 0 0 0 0
05-10-2018 25.9 (15:00) 12.7 (08:50) 19.3 5.56 (15:00) 2.5 (02:00) 0 0 0 0 0
04-10-2018 26.6 (12:30) 12.4 (00:00) 19.5 5.83 (15:30) 2.78 (15:30) 0 0 0 0 0
03-10-2018 25.7 (18:10) 11.9 (00:00) 18.8 6.39 (13:40) 2.22 (16:00) 0 0 0 0 0
02-10-2018 27.3 (18:00) 14.2 (00:00) 20.7 5.28 (17:50) 2.5 (18:00) 0 0 0 0 0
01-10-2018 27.8 (18:00) 16.1 (00:00) 21.9 7.22 (15:20) 3.61 (15:10) 0 0 0 0 0
30-09-2018 27.9 (15:40) 16.3 (00:00) 22.1 8.33 (16:10) 4.44 (17:00) 0.6 0 0 0 0.6
29-09-2018 27.2 (18:30) 14.2 (00:00) 20.7 5.56 (13:30) 2.78 (22:20) 0 0 0 0 0
28-09-2018 26.1 (18:10) 15 (00:00) 20.6 5.83 (15:40) 2.5 (18:00) 0 0 0 0 0
27-09-2018 27.1 (18:40) 16.9 (00:00) 22 5.83 (12:50) 2.78 (12:50) 0 0 0 0 0
26-09-2018 28.3 (18:00) 17.9 (00:00) 23.1 11.67 (21:30) 4.44 (21:30) 0.8 0 0 0 0.8
25-09-2018 31.7 (15:20) 18.5 (00:00) 25.1 5.56 (16:00) 3.33 (21:50) 0 0 0 0 0
24-09-2018 32.5 (15:00) 18.4 (00:00) 25.4 6.39 (16:50) 2.5 (03:20) 0 0 0 0 0
23-09-2018 32.3 (18:20) 18 (08:30) 25.1 7.5 (15:10) 3.06 (15:10) 0 0 0 0 0
22-09-2018 32 (15:00) 18.2 (07:50) 25.1 6.67 (16:20) 2.5 (14:40) 0 0 0 0 0
21-09-2018 30.1 (15:10) 16.8 (08:40) 23.4 6.67 (15:40) 2.5 (15:40) 0 0 0 0 0
20-09-2018 29.3 (18:40) 17.7 (08:10) 23.5 5.83 (23:30) 2.78 (02:20) 0 0 0 0 0
19-09-2018 29.8 (12:50) 16.8 (08:20) 23.3 6.11 (02:00) 2.5 (23:00) 0 0 0 0 0
18-09-2018 29.3 (15:10) 16.4 (07:50) 22.8 8.33 (15:40) 4.17 (15:40) 12.2 0 0 12 0.2
17-09-2018 28.2 (12:40) 16.9 (07:30) 22.6 8.33 (18:40) 3.89 (18:40) 13.6 0 0 0 13.6
16-09-2018 28.3 (18:20) 15.4 (00:00) 21.8 6.39 (17:30) 2.5 (11:50) 0 0 0 0 0
15-09-2018 27.8 (14:40) 16.4 (00:00) 22.1 7.5 (20:30) 3.89 (01:00) 0 0 0 0 0

Gráficas

Temp. máximas Temp. mínimas Temp. medias Precipitaciones Rachas de viento máximas Velocidades máximas media en intervalos de 10 minutos

Datos horarios

Fecha y hora oficial Temperatura (ºC) Velocidad del viento (km/h) Dirección del viento Racha (km/h) Dirección de racha Precipitación (mm) Presión (hPa) Tendencia (hPa) Humedad (%)
2018-10-14 23:00:00 11.1 6 Noroeste 18 Oeste 0 -- -- 79
2018-10-14 22:00:00 11.2 7 Noroeste 16 Noroeste 0 -- -- 76
2018-10-14 21:00:00 12.2 7 Noroeste 22 Noroeste 0 -- -- 70
2018-10-14 20:00:00 13 11 Noroeste 31 Noroeste 0 -- -- 65
2018-10-14 19:00:00 14.3 17 Noroeste 37 Noroeste 0 -- -- 61
2018-10-14 18:00:00 15.1 17 Noroeste 40 Noroeste 0 -- -- 62
2018-10-14 17:00:00 14.9 21 Noroeste 46 Norte 0 -- -- 61
2018-10-14 16:00:00 14.7 19 Noroeste 37 Noroeste 0 -- -- 62
2018-10-14 15:00:00 14.6 21 Noroeste 37 Oeste 0 -- -- 62
2018-10-14 14:00:00 13.9 16 Noroeste 41 Oeste 0 -- -- 67
2018-10-14 13:00:00 13 18 Noroeste 38 Noroeste 0 -- -- 71
2018-10-14 12:00:00 12.2 17 Norte 40 Norte 0 -- -- 78
2018-10-14 11:00:00 -- 21 Noroeste 37 Noroeste 0.2 -- -- --
2018-10-14 10:00:00 9.7 14 Noroeste 35 Noroeste 0 -- -- 95
2018-10-14 09:00:00 10.3 18 Noroeste 34 Noroeste 0 -- -- 93
2018-10-14 08:00:00 11.4 8 Noroeste 32 Noroeste 0 -- -- 96
2018-10-14 07:00:00 12.4 15 Noroeste 35 Norte 0 -- -- 96
2018-10-14 06:00:00 13.7 17 Noroeste 31 Noroeste 0.6 -- -- 95
2018-10-14 05:00:00 15.1 12 Noroeste 26 Noroeste 2.6 -- -- 95
2018-10-14 04:00:00 15.7 10 Oeste 34 Noroeste 15.4 -- -- 94
2018-10-14 03:00:00 17.7 5 Sur 29 Sudoeste 0 -- -- 88
2018-10-14 02:00:00 17.7 12 Sudoeste 30 Sur 0 -- -- 86
2018-10-14 01:00:00 18.1 7 Sur 27 Sudoeste 0 -- -- 79
2018-10-14 00:00:00 18.4 5 Sur 19 Sur 0 -- -- 82
2018-10-13 23:00:00 18.8 3 Sur 23 Sur 0 -- -- 82
2018-10-13 22:00:00 19.2 3 Sur 16 Sudoeste 0 -- -- 75
2018-10-13 21:00:00 19.9 0 Calma 16 Sudoeste 0 -- -- 68
2018-10-13 20:00:00 21.3 6 Sur 23 Sudoeste 0 -- -- 63
2018-10-13 19:00:00 22.7 2 Sur 15 Sudoeste 0 -- -- 63
2018-10-13 18:00:00 23.2 4 Sur 20 Sudoeste 0 -- -- 58
2018-10-13 17:00:00 23.5 4 Sur 28 Sudoeste 0 -- -- 56
2018-10-13 16:00:00 23.3 5 Sur 20 Sur 0 -- -- 52
2018-10-13 15:00:00 22.8 4 Sur 19 Sudoeste 0 -- -- 55
2018-10-13 14:00:00 22.4 4 Sur 17 Sur 0 -- -- 58
2018-10-13 13:00:00 22.1 3 Sur 14 Sudeste 0 -- -- 63
2018-10-13 12:00:00 21.2 3 Este 9 Nordeste 0 -- -- 70
2018-10-13 11:00:00 18 0 Calma 0 Calma 0 -- -- 89
2018-10-13 10:00:00 15.6 0 Calma 0 Calma 0 -- -- 98
2018-10-13 09:00:00 13.8 0 Calma 0 Calma 0 -- -- 97
2018-10-13 08:00:00 13.7 0 Calma -- -- 0 -- -- 96
2018-10-13 07:00:00 13.8 0 Calma 0 Calma 0 -- -- 96
2018-10-13 06:00:00 14 0 Calma -- -- 0 -- -- 95
2018-10-13 05:00:00 14.3 0 Calma 0 Calma 0 -- -- 94
2018-10-13 04:00:00 14.7 0 Calma 0 Calma 0 -- -- 95
2018-10-13 03:00:00 15.1 0 Calma 2 Noroeste 0 -- -- 94
2018-10-13 02:00:00 15.7 0 Calma 2 Norte 0 -- -- 95
2018-10-13 01:00:00 16 0 Calma 5 Noroeste 0 -- -- 93
2018-10-13 00:00:00 16.5 0 Calma 4 Noroeste 0 -- -- 92
2018-10-12 23:00:00 17.3 0 Calma 5 Noroeste 0 -- -- 91
2018-10-12 22:00:00 18 2 Noroeste 4 Sudoeste 0.2 -- -- 90
2018-10-12 21:00:00 18.7 0 Calma 5 Sudoeste 0 -- -- 88
2018-10-12 20:00:00 19.7 0 Calma 5 Sudeste 0 -- -- 84
2018-10-12 19:00:00 20.7 0 Calma 9 Sudoeste 0 -- -- 81
2018-10-12 18:00:00 21.4 3 Sur 8 Sudoeste 0 -- -- 77
2018-10-12 17:00:00 21.9 3 Sur 14 Sudoeste 0 -- -- 77
2018-10-12 16:00:00 21.9 3 Sur 15 Sudeste 0 -- -- 78
2018-10-12 15:00:00 21.8 3 Sur 15 Sudoeste 0 -- -- 79
2018-10-12 14:00:00 21.3 3 Sur 15 Sudeste 0 -- -- 84
2018-10-12 13:00:00 19.9 2 Sur 10 Sur 0 -- -- 88
2018-10-12 12:00:00 19.7 2 Sur 11 Sudoeste 0 -- -- 92
2018-10-12 11:00:00 18.6 3 Sur 15 Sudoeste 0 -- -- 95
2018-10-12 10:00:00 17.8 4 Sur 16 Sudoeste 0.8 -- -- 96
2018-10-12 09:00:00 17.6 0 Calma 9 Sur 0.6 -- -- 96
2018-10-12 08:00:00 17.6 0 Calma 6 Este 0.4 -- -- 95
2018-10-12 07:00:00 17.5 0 Calma 8 Oeste 0 -- -- 95
2018-10-12 06:00:00 17.5 0 Calma 13 Sudoeste 0 -- -- 96
2018-10-12 05:00:00 17.5 0 Calma 13 Sudoeste 0 -- -- 95
2018-10-12 04:00:00 17.5 3 Sudoeste 14 Oeste 0.4 -- -- 95
2018-10-12 03:00:00 17.5 3 Sur 13 Sudoeste 0 -- -- 95
2018-10-12 02:00:00 17.5 2 Sur 15 Sudoeste 0.2 -- -- 95
2018-10-12 01:00:00 17.5 3 Sudoeste 16 Sudoeste 2.2 -- -- 95
2018-10-12 00:00:00 17.4 3 Sudoeste 19 Sudoeste 0.4 -- -- 96
2018-10-11 23:00:00 -- 5 Sur 15 Sudoeste 1.2 -- -- --
2018-10-11 22:00:00 17.2 4 Sur 24 Sudoeste 0.6 -- -- 95
2018-10-11 21:00:00 17.4 7 Sudoeste 22 Sudoeste 1 -- -- 95
2018-10-11 20:00:00 17.4 5 Sur 27 Sudoeste 1.2 -- -- 94
2018-10-11 19:00:00 17.8 4 Sur 17 Sudoeste 0.4 -- -- 93
2018-10-11 18:00:00 17.9 5 Sur 22 Sudoeste 0.4 -- -- 92
2018-10-11 17:00:00 18.3 7 Sur 19 Sudoeste 0.6 -- -- 88
2018-10-11 16:00:00 19 5 Sudoeste 23 Sudoeste 0 -- -- 81
2018-10-11 15:00:00 19.8 3 Sur 23 Sudoeste 0 -- -- 79
2018-10-11 14:00:00 18.7 9 Sudoeste 22 Oeste 0 -- -- 83
2018-10-11 13:00:00 18 9 Sudoeste 23 Sudoeste 0 -- -- 91
2018-10-11 12:00:00 17 10 Sudoeste 23 Oeste 0 -- -- 94
2018-10-11 11:00:00 16.8 0 Calma 12 Sudeste 0.2 -- -- 96
2018-10-11 10:00:00 16.3 2 Sur 18 Sudeste 3.2 -- -- 95
2018-10-11 09:00:00 16.2 3 Sur 15 Sudeste 4.6 -- -- 95
2018-10-11 08:00:00 16.2 2 Sur 10 Sudoeste 1.8 -- -- 94
2018-10-11 07:00:00 16.3 3 Sur 12 Sur 0.2 -- -- 91
2018-10-11 06:00:00 16.3 2 Sur 14 Sudeste 0 -- -- 89
2018-10-11 05:00:00 16.5 3 Sur 15 Sudeste 0 -- -- 91
2018-10-11 04:00:00 16.7 4 Sur 17 Sur 0.2 -- -- 92
2018-10-11 03:00:00 17 3 Sur 12 Sudeste 0 -- -- 92
2018-10-11 02:00:00 16.6 2 Sur 11 Sudeste 0 -- -- 89
2018-10-11 01:00:00 16.8 0 Calma 11 Sudoeste 0 -- -- 85
2018-10-11 00:00:00 17 2 Sur 13 Sudoeste 0 -- -- 83
2018-10-10 23:00:00 16.9 4 Sudoeste 13 Sudoeste 0 -- -- 84
2018-10-10 22:00:00 17.6 4 Sudoeste 16 Sudoeste 0 -- -- 79
2018-10-10 21:00:00 18.2 7 Sudoeste 23 Sudoeste 0 -- -- 75
2018-10-10 20:00:00 19.2 5 Sur 19 Oeste 0 -- -- 70
2018-10-10 19:00:00 20.2 4 Sur 25 Sudoeste 0 -- -- 66
2018-10-10 18:00:00 21.5 4 Sur 21 Sudoeste 0 -- -- 61
2018-10-10 17:00:00 21.5 6 Sur 19 Sudoeste 0 -- -- 62
2018-10-10 16:00:00 20.8 4 Sur 15 Sudoeste 0 -- -- 64
2018-10-10 15:00:00 20.4 3 Sur 22 Sudoeste 0 -- -- 66
2018-10-10 14:00:00 19.7 5 Sur 23 Sudoeste 0 -- -- 66
2018-10-10 13:00:00 19.2 6 Sur 20 Sudoeste 0 -- -- 69
2018-10-10 12:00:00 18.1 2 Sur 18 Sudoeste 0 -- -- 76
2018-10-10 11:00:00 17.3 3 Sur 15 Sudoeste 0 -- -- 82
2018-10-10 10:00:00 16.1 4 Sur 23 Sudoeste 0 -- -- 87
2018-10-10 09:00:00 15.8 3 Sur 14 Sudoeste 0 -- -- 90
2018-10-10 08:00:00 15.6 2 Sur 12 Sudoeste 0 -- -- 88
2018-10-10 07:00:00 15.9 5 Sudoeste 17 Sudoeste 0 -- -- 87
2018-10-10 06:00:00 16.1 0 Calma 14 Sudoeste 0 -- -- 86
2018-10-10 05:00:00 16.2 4 Sur 18 Sudoeste 0 -- -- 85
2018-10-10 04:00:00 16.2 5 Sudoeste 17 Sudoeste 0 -- -- 82
2018-10-10 03:00:00 16.1 7 Sudoeste 19 Sudoeste 0 -- -- 80
2018-10-10 02:00:00 15.6 5 Sudoeste 18 Sudoeste 0 -- -- 84
2018-10-10 01:00:00 15 3 Sudoeste 10 Sur 0 -- -- 85
2018-10-10 00:00:00 15.6 5 Sudoeste 13 Oeste 0 -- -- 75
2018-10-09 23:00:00 16.2 4 Sudoeste 12 Sudoeste 0 -- -- 72
2018-10-09 22:00:00 17.2 4 Sudoeste 17 Sudoeste 0 -- -- 66
2018-10-09 21:00:00 18.5 9 Sudoeste 21 Sudoeste 0 -- -- 65
2018-10-09 20:00:00 19.8 4 Sudoeste 15 Sudoeste 0 -- -- 59
2018-10-09 19:00:00 21.3 5 Sudoeste 15 Oeste 0 -- -- 49
2018-10-09 18:00:00 21.3 7 Sudoeste 18 Sudoeste 0 -- -- 47
2018-10-09 17:00:00 21.7 3 Oeste 15 Sudoeste 0 -- -- 46
2018-10-09 16:00:00 21.3 4 Sur 15 Sudoeste 0 -- -- 53
2018-10-09 15:00:00 20.6 7 Sudoeste 20 Sudoeste 0 -- -- 56
2018-10-09 14:00:00 20.1 3 Sur 15 Sur 0 -- -- 59
2018-10-09 13:00:00 20.2 5 Sudoeste 13 Sudoeste 0 -- -- 56
2018-10-09 12:00:00 19.2 3 Sudeste 10 Este 0 -- -- 66
2018-10-09 11:00:00 15.6 3 Este 12 Este 0 -- -- 80
2018-10-09 10:00:00 12.6 3 Nordeste 6 Nordeste 0 -- -- 93
2018-10-09 09:00:00 10.5 2 Noroeste 4 Noroeste 0 -- -- 88
2018-10-09 08:00:00 9.9 0 Calma 0 Calma 0 -- -- 86
2018-10-09 07:00:00 10.5 0 Calma 2 Nordeste 0 -- -- 80
2018-10-09 06:00:00 10.7 0 Calma 2 Noroeste 0 -- -- 78
2018-10-09 05:00:00 11 0 Calma 8 Nordeste 0 -- -- 72
2018-10-09 04:00:00 11.8 3 Este 9 Nordeste 0 -- -- 70
2018-10-09 03:00:00 12 0 Calma 2 Sudoeste 0 -- -- 69
2018-10-09 02:00:00 12.3 0 Calma 3 Sudoeste 0 -- -- 68
2018-10-09 01:00:00 12.8 0 Calma 3 Oeste 0 -- -- 63
2018-10-09 00:00:00 13.8 0 Calma 2 Oeste 0 -- -- 58
2018-10-08 23:00:00 15.4 2 Noroeste 5 Nordeste 0 -- -- 52
2018-10-08 22:00:00 17.4 0 Calma 12 Sudoeste 0 -- -- 47
2018-10-08 21:00:00 19 2 Sur 9 Sudoeste 0 -- -- 46
2018-10-08 20:00:00 20.9 3 Sur 12 Sudoeste 0 -- -- 42
2018-10-08 19:00:00 22.8 2 Sur 17 Sudoeste 0 -- -- 39
2018-10-08 18:00:00 23.3 5 Sudoeste 19 Sudoeste 0 -- -- 38
2018-10-08 17:00:00 22.4 6 Oeste 16 Oeste 0 -- -- 38
2018-10-08 16:00:00 21.5 4 Sur 14 Oeste 0 -- -- 42
2018-10-08 15:00:00 22.3 8 Oeste 16 Noroeste 0 -- -- 36
2018-10-08 14:00:00 22 5 Sur 18 Oeste 0 -- -- 37
2018-10-08 13:00:00 21.8 5 Sudeste 15 Este 0 -- -- 35
2018-10-08 12:00:00 21.3 6 Este 17 Este 0 -- -- 37
2018-10-08 11:00:00 17.7 6 Sudeste 15 Sudeste 0 -- -- 41
2018-10-08 10:00:00 13.2 2 Sudeste 8 Este 0 -- -- 51
2018-10-08 09:00:00 10.6 0 Calma 3 Nordeste 0 -- -- 60
2018-10-08 08:00:00 10.8 0 Calma 2 Sudoeste 0 -- -- 57
2018-10-08 07:00:00 11.2 0 Calma 2 Noroeste 0 -- -- 56
2018-10-08 06:00:00 11.8 0 Calma 2 Sudoeste 0 -- -- 54
2018-10-08 05:00:00 12.3 0 Calma 2 Sudoeste 0 -- -- 51
2018-10-08 04:00:00 13.1 0 Calma 5 Noroeste 0 -- -- 49
2018-10-08 03:00:00 14.3 4 Noroeste 10 Noroeste 0 -- -- 43
2018-10-08 02:00:00 14.8 4 Noroeste 10 Norte 0 -- -- 39
2018-10-08 01:00:00 14.5 4 Noroeste 6 Noroeste 0 -- -- 41
2018-10-08 00:00:00 15.2 4 Noroeste 13 Norte 0 -- -- 39
2018-10-07 23:00:00 16.1 4 Noroeste 8 Oeste 0 -- -- 47
2018-10-07 22:00:00 18.5 5 Oeste 12 Oeste 0 -- -- 42
2018-10-07 21:00:00 20 7 Oeste 14 Oeste 0 -- -- 41
2018-10-07 20:00:00 21.8 8 Noroeste 20 Noroeste 0 -- -- 36
2018-10-07 19:00:00 23.8 12 Noroeste 24 Noroeste 0 -- -- 33
2018-10-07 18:00:00 24.8 12 Noroeste 26 Oeste 0 -- -- 29
2018-10-07 17:00:00 25.2 8 Noroeste 28 Oeste 0 -- -- 29
2018-10-07 16:00:00 25 9 Oeste 25 Oeste 0 -- -- 29
2018-10-07 15:00:00 24.9 10 Oeste 31 Noroeste 0 -- -- 29
2018-10-07 14:00:00 24.2 14 Noroeste 27 Noroeste 0 -- -- 30
2018-10-07 13:00:00 23.7 11 Oeste 22 Oeste 0 -- -- 31
2018-10-07 12:00:00 23.8 8 Oeste 17 Oeste 0 -- -- 36
2018-10-07 11:00:00 20.6 7 Oeste 12 Oeste 0 -- -- 44
2018-10-07 10:00:00 15.7 5 Oeste 9 Oeste 0 -- -- 58
2018-10-07 09:00:00 13 4 Noroeste 6 Noroeste 0 -- -- 62
2018-10-07 08:00:00 13.2 0 Calma 5 Sudoeste 0 -- -- 60
2018-10-07 07:00:00 14 0 Calma 4 Norte 0 -- -- 58
2018-10-07 06:00:00 14.9 0 Calma 4 Noroeste 0 -- -- 57
2018-10-07 05:00:00 16 2 Noroeste 7 Oeste 0 -- -- 56
2018-10-07 04:00:00 17 2 Noroeste 10 Oeste 0 -- -- 57
2018-10-07 03:00:00 18.4 7 Noroeste 19 Oeste 0 -- -- 56
2018-10-07 02:00:00 19.3 13 Oeste 20 Oeste 0 -- -- 55
2018-10-07 01:00:00 19.3 10 Oeste 14 Oeste 0 -- -- 54
2018-10-07 00:00:00 19.9 7 Oeste 11 Noroeste 0 -- -- 53
2018-10-06 23:00:00 20.4 8 Oeste 12 Oeste 0 -- -- 51
2018-10-06 22:00:00 21.2 8 Oeste 14 Oeste 0 -- -- 49
2018-10-06 21:00:00 22.6 10 Oeste 23 Sudoeste 0 -- -- 45
2018-10-06 20:00:00 24.4 10 Sudoeste 19 Sudoeste 0 -- -- 39
2018-10-06 19:00:00 26 5 Sudoeste 26 Sudoeste 0 -- -- 31
2018-10-06 18:00:00 26.7 9 Sudoeste 21 Sudoeste 0 -- -- 29
2018-10-06 17:00:00 26.5 6 Sudoeste 24 Sudoeste 0 -- -- 29
2018-10-06 16:00:00 26.1 10 Sudoeste 23 Oeste 0 -- -- 29
2018-10-06 15:00:00 25.7 8 Oeste 22 Oeste 0 -- -- 30
2018-10-06 14:00:00 25.3 4 Sudoeste 12 Este 0 -- -- 35
2018-10-06 13:00:00 25.3 3 Sur 14 Este 0 -- -- 38
2018-10-06 12:00:00 24.5 0 Calma 8 Nordeste 0 -- -- 41
2018-10-06 11:00:00 19.9 0 Calma 7 Este 0 -- -- 47
2018-10-06 10:00:00 15.7 0 Calma 9 Sudeste 0 -- -- 60
2018-10-06 09:00:00 13.9 5 Noroeste 8 Oeste 0 -- -- 62
2018-10-06 08:00:00 13 0 Calma 5 Oeste 0 -- -- 65
2018-10-06 07:00:00 13.2 2 Noroeste 6 Noroeste 0 -- -- 61
2018-10-06 06:00:00 13.8 4 Noroeste 6 Noroeste 0 -- -- 61
2018-10-06 05:00:00 13.9 0 Calma 2 Oeste 0 -- -- 63
2018-10-06 04:00:00 14.6 0 Calma 2 Oeste 0 -- -- 63
2018-10-06 03:00:00 16.3 0 Calma 10 Oeste 0 -- -- 59
2018-10-06 02:00:00 16.8 4 Oeste 8 Oeste 0 -- -- 59
2018-10-06 01:00:00 17.5 0 Calma 10 Oeste 0 -- -- 50
2018-10-06 00:00:00 17.3 7 Oeste 10 Oeste 0 -- -- 54
2018-10-05 23:00:00 17.9 0 Calma 4 Nordeste 0 -- -- 44
2018-10-05 22:00:00 19.1 0 Calma 5 Sudoeste 0 -- -- 41
2018-10-05 21:00:00 20.3 0 Calma 5 Sudoeste 0 -- -- 38
2018-10-05 20:00:00 22.8 0 Calma 6 Este 0 -- -- 35
2018-10-05 19:00:00 25 3 Sudeste 11 Sudeste 0 -- -- 33
2018-10-05 18:00:00 25.8 3 Sur 18 Este 0 -- -- 31
2018-10-05 17:00:00 25.8 6 Sudeste 17 Este 0 -- -- 30
2018-10-05 16:00:00 25.9 6 Sudeste 16 Este 0 -- -- 28
2018-10-05 15:00:00 25.9 8 Sudeste 20 Este 0 -- -- 30
2018-10-05 14:00:00 25.4 4 Sudeste 18 Sudeste 0 -- -- 36
2018-10-05 13:00:00 25.5 7 Sudeste 16 Este 0 -- -- 34
2018-10-05 12:00:00 24.6 5 Sudeste 11 Este 0 -- -- 42
2018-10-05 11:00:00 20 0 Calma 4 Sudeste 0 -- -- 57
2018-10-05 10:00:00 15.2 0 Calma -- -- 0 -- -- 70
2018-10-05 09:00:00 12.8 0 Calma 2 Noroeste 0 -- -- 72
2018-10-05 08:00:00 13.1 0 Calma 4 Oeste 0 -- -- 64
2018-10-05 07:00:00 13.9 0 Calma 6 Noroeste 0 -- -- 59
2018-10-05 06:00:00 14.9 3 Noroeste 6 Noroeste 0 -- -- 52
2018-10-05 05:00:00 15.8 0 Calma 4 Noroeste 0 -- -- 51
2018-10-05 04:00:00 16.8 4 Noroeste 6 Noroeste 0 -- -- 51
2018-10-05 03:00:00 18 0 Calma 12 Oeste 0 -- -- 50
2018-10-05 02:00:00 -- 9 Oeste 15 Noroeste 0 -- -- --
2018-10-05 01:00:00 19.7 8 Oeste 12 Oeste 0 -- -- 46
2018-10-05 00:00:00 19.7 6 Oeste 12 Sudoeste 0 -- -- 47
2018-10-04 23:00:00 20.3 2 Oeste 15 Oeste 0 -- -- 45
2018-10-04 22:00:00 20.3 3 Oeste 8 Noroeste 0 -- -- 41
2018-10-04 21:00:00 21.8 3 Sudoeste 6 Sudoeste 0 -- -- 38
2018-10-04 20:00:00 24 2 Sur 9 Sudoeste 0 -- -- 36
2018-10-04 19:00:00 26 0 Calma 10 Sudoeste 0 -- -- 33
2018-10-04 18:00:00 -- 4 Sudeste 13 Este 0 -- -- --
2018-10-04 17:00:00 26.4 4 Sudeste 21 Sudoeste 0 -- -- 31
2018-10-04 16:00:00 26.3 4 Sudoeste 21 Oeste 0 -- -- 35
2018-10-04 15:00:00 26.1 3 Sur 13 Sudoeste 0 -- -- 33
2018-10-04 14:00:00 25.7 3 Sur 15 Sudoeste 0 -- -- 39
2018-10-04 13:00:00 26.2 2 Sur 9 Sudeste 0 -- -- 35
2018-10-04 12:00:00 25.6 2 Sudeste 6 Noroeste 0 -- -- 37
2018-10-04 11:00:00 20.7 2 Norte 9 Sudeste 0 -- -- 51
2018-10-04 10:00:00 15.6 2 Sudeste 5 Sudeste 0 -- -- 67
2018-10-04 09:00:00 12.7 0 Calma -- -- 0 -- -- 68
2018-10-04 08:00:00 12.7 0 Calma 5 Noroeste 0 -- -- 66
2018-10-04 07:00:00 13.3 2 Noroeste 5 Noroeste 0 -- -- 64
2018-10-04 06:00:00 14.4 0 Calma 2 Noroeste 0 -- -- 64
2018-10-04 05:00:00 14.9 0 Calma 7 Noroeste 0 -- -- 62
2018-10-04 04:00:00 15.1 0 Calma 6 Noroeste 0 -- -- 63
2018-10-04 03:00:00 15.5 0 Calma 3 Oeste 0 -- -- 59
2018-10-04 02:00:00 16.4 0 Calma 5 Oeste 0 -- -- 56
2018-10-04 01:00:00 16.5 0 Calma 5 Oeste 0 -- -- 53
2018-10-04 00:00:00 17.2 5 Oeste 8 Oeste 0 -- -- 46
2018-10-03 23:00:00 17.9 5 Oeste 8 Oeste 0 -- -- 43
2018-10-03 22:00:00 19.4 3 Noroeste 5 Sudoeste 0 -- -- 40
2018-10-03 21:00:00 20.9 2 Sudoeste 6 Sudoeste 0 -- -- 38
2018-10-03 20:00:00 23.1 3 Sudoeste 9 Sudoeste 0 -- -- 37
2018-10-03 19:00:00 25.2 2 Sudeste 8 Sudeste 0 -- -- 34
2018-10-03 18:00:00 25.6 2 Sudoeste 13 Este 0 -- -- 36
2018-10-03 17:00:00 25.5 4 Sudeste 12 Sur 0 -- -- 29
2018-10-03 16:00:00 25.3 8 Sudeste 16 Sudeste 0 -- -- 34
2018-10-03 15:00:00 25 4 Sudeste 16 Este 0 -- -- 37
2018-10-03 14:00:00 24.1 6 Sudeste 23 Este 0 -- -- 45
2018-10-03 13:00:00 23.3 7 Este 16 Este 0 -- -- 52
2018-10-03 12:00:00 22.3 6 Sudeste 14 Sudeste 0 -- -- 55
2018-10-03 11:00:00 18.6 4 Sudeste 11 Este 0 -- -- 55
2018-10-03 10:00:00 14.7 2 Sudeste 7 Sudeste 0 -- -- 60
2018-10-03 09:00:00 12.2 0 Calma 0 Calma 0 -- -- 39
2018-10-03 08:00:00 12.1 0 Calma 2 Oeste 0 -- -- 36
2018-10-03 07:00:00 12.2 0 Calma 4 Oeste 0 -- -- 34
2018-10-03 06:00:00 12.3 2 Oeste 4 Noroeste 0 -- -- 34
2018-10-03 05:00:00 12.7 2 Noroeste 4 Oeste 0 -- -- 32
2018-10-03 04:00:00 13.7 0 Calma 3 Noroeste 0 -- -- 31
2018-10-03 03:00:00 14.8 3 Norte 4 Nordeste 0 -- -- 26
2018-10-03 02:00:00 16.2 2 Nordeste 6 Noroeste 0 -- -- 20
2018-10-03 01:00:00 15.8 4 Noroeste 5 Noroeste 0 -- -- 23
2018-10-03 00:00:00 17.1 4 Noroeste 7 Noroeste 0 -- -- 19
2018-10-02 23:00:00 18 2 Oeste 8 Norte 0 -- -- 20
2018-10-02 22:00:00 18.9 5 Noroeste 8 Noroeste 0 -- -- 20
2018-10-02 21:00:00 21.3 3 Noroeste 14 Norte 0 -- -- 21
2018-10-02 20:00:00 24.2 3 Noroeste 14 Nordeste 0 -- -- 22
2018-10-02 19:00:00 26.5 8 Nordeste 19 Norte 0 -- -- 19
2018-10-02 18:00:00 27.3 9 Nordeste 19 Nordeste 0 -- -- 20
2018-10-02 17:00:00 26.8 4 Sudeste 17 Este 0 -- -- 23
2018-10-02 16:00:00 26.9 6 Norte 17 Nordeste 0 -- -- 23
2018-10-02 15:00:00 26.5 4 Sudeste 15 Sudeste 0 -- -- 25
2018-10-02 14:00:00 26 3 Sudeste 17 Este 0 -- -- 26
2018-10-02 13:00:00 26.2 3 Sudeste 14 Sudeste 0 -- -- 26
2018-10-02 12:00:00 25.9 5 Sudeste 16 Este 0 -- -- 29
2018-10-02 11:00:00 22.3 5 Este 11 Sudeste 0 -- -- 31
2018-10-02 10:00:00 17.4 2 Este 5 Este 0 -- -- 47
2018-10-02 09:00:00 14.3 0 Calma 4 Este 0 -- -- 53
2018-10-02 08:00:00 14.4 0 Calma 2 Nordeste 0 -- -- 55
2018-10-02 07:00:00 15.1 0 Calma 4 Noroeste 0 -- -- 53
2018-10-02 06:00:00 15.7 2 Noroeste 4 Norte 0 -- -- 47
2018-10-02 05:00:00 16.5 2 Norte 6 Este 0 -- -- 44
2018-10-02 04:00:00 17.4 0 Calma 5 Noroeste 0 -- -- 42
2018-10-02 03:00:00 18.8 0 Calma 9 Norte 0 -- -- 38
2018-10-02 02:00:00 20 6 Noroeste 10 Noroeste 0 -- -- 35
2018-10-02 01:00:00 19.9 5 Noroeste 11 Norte 0 -- -- 34
2018-10-02 00:00:00 19.1 4 Noroeste 8 Noroeste 0 -- -- 35
2018-10-01 23:00:00 19.3 4 Noroeste 6 Noroeste 0 -- -- 37
2018-10-01 22:00:00 20.3 3 Noroeste 5 Noroeste 0 -- -- 38
2018-10-01 21:00:00 22.7 3 Noroeste 8 Noroeste 0 -- -- 36
2018-10-01 20:00:00 25.4 4 Noroeste 15 Noroeste 0 -- -- 32
2018-10-01 19:00:00 27.2 8 Norte 18 Norte 0 -- -- 29
2018-10-01 18:00:00 27.8 12 Noroeste 21 Noroeste 0 -- -- 27
2018-10-01 17:00:00 27.7 10 Norte 23 Nordeste 0 -- -- 27
2018-10-01 16:00:00 27.3 10 Norte 26 Norte 0 -- -- 32
2018-10-01 15:00:00 26.9 10 Norte 24 Noroeste 0 -- -- 33
2018-10-01 14:00:00 25.3 6 Noroeste 18 Norte 0 -- -- 38
2018-10-01 13:00:00 26.1 3 Sudeste 9 Oeste 0 -- -- 50
2018-10-01 12:00:00 26 6 Noroeste 12 Noroeste 0 -- -- 46
2018-10-01 11:00:00 22.6 2 Noroeste 8 Oeste 0 -- -- 59
2018-10-01 10:00:00 18.1 3 Oeste 8 Oeste 0 -- -- 75
2018-10-01 09:00:00 16.2 2 Noroeste 12 Nordeste 0 -- -- 78
2018-10-01 08:00:00 16.5 3 Noroeste 5 Oeste 0 -- -- 76
2018-10-01 07:00:00 17.1 0 Calma 7 Oeste 0 -- -- 72
2018-10-01 06:00:00 17.7 0 Calma 6 Oeste 0 -- -- 71
2018-10-01 05:00:00 18.6 0 Calma 13 Oeste 0 -- -- 69
2018-10-01 04:00:00 19.1 5 Oeste 17 Oeste 0 -- -- 70
2018-10-01 03:00:00 19.5 8 Oeste 18 Noroeste 0 -- -- 68
2018-10-01 02:00:00 19.9 5 Noroeste 12 Noroeste 0 -- -- 62
2018-10-01 01:00:00 19.9 6 Oeste 14 Sudoeste 0 -- -- 60
2018-10-01 00:00:00 19.7 0 Calma 7 Noroeste 0 -- -- 62
2018-09-30 23:00:00 19.7 4 Noroeste 12 Oeste 0 -- -- 60
2018-09-30 22:00:00 19.1 6 Oeste 13 Oeste 0 -- -- 73
2018-09-30 21:00:00 19.2 9 Oeste 26 Oeste 0 -- -- 77
2018-09-30 20:00:00 19.6 11 Oeste 19 Oeste 0.2 -- -- 71
2018-09-30 19:00:00 21.1 0 Calma 13 Oeste 0.4 -- -- 75
2018-09-30 18:00:00 22.5 6 Norte 29 Oeste 0 -- -- 49
2018-09-30 17:00:00 25 16 Noroeste 30 Norte 0 -- -- 44
2018-09-30 16:00:00 27.4 12 Noroeste 25 Norte 0 -- -- 38
2018-09-30 15:00:00 27.2 4 Sur 14 Sudoeste 0 -- -- 48
2018-09-30 14:00:00 26.1 4 Sur 14 Oeste 0 -- -- 48
2018-09-30 13:00:00 26.3 3 Sudeste 12 Sudoeste 0 -- -- 52
2018-09-30 12:00:00 25.9 4 Sur 12 Sudoeste 0 -- -- 53
2018-09-30 11:00:00 22.6 3 Sudeste 8 Este 0 -- -- 63
2018-09-30 10:00:00 18.9 3 Sudeste 8 Sur 0 -- -- 74
2018-09-30 09:00:00 16.8 2 Este 5 Este 0 -- -- 79
2018-09-30 08:00:00 16.4 0 Calma 3 Sudoeste 0 -- -- 77
2018-09-30 07:00:00 17.3 2 Noroeste 3 Noroeste 0 -- -- 74
2018-09-30 06:00:00 17.8 0 Calma 11 Oeste 0 -- -- 72
2018-09-30 05:00:00 17.4 4 Oeste 9 Oeste 0 -- -- 75
2018-09-30 04:00:00 18.2 0 Calma 6 Nordeste 0 -- -- 72
2018-09-30 03:00:00 19.1 2 Norte 13 Oeste 0 -- -- 70
2018-09-30 02:00:00 19.5 7 Oeste 16 Oeste 0 -- -- 69
2018-09-30 01:00:00 19.8 0 Calma 9 Oeste 0 -- -- 67
2018-09-30 00:00:00 21.3 6 Oeste 13 Oeste 0 -- -- 64
2018-09-29 23:00:00 21.9 8 Oeste 17 Sudoeste 0 -- -- 61
2018-09-29 22:00:00 22.4 7 Oeste 12 Sudoeste 0 -- -- 59
2018-09-29 21:00:00 23.5 0 Calma 6 Sudeste 0 -- -- 52
2018-09-29 20:00:00 25.4 2 Sur 14 Sur 0 -- -- 47
2018-09-29 19:00:00 27 4 Sur 12 Sudoeste 0 -- -- 40
2018-09-29 18:00:00 27 2 Sur 14 Sudoeste 0 -- -- 39
2018-09-29 17:00:00 26.6 3 Este 13 Sudeste 0 -- -- 41
2018-09-29 16:00:00 26.7 3 Sur 11 Sudeste 0 -- -- 42
2018-09-29 15:00:00 26.5 6 Sudeste 15 Sudeste 0 -- -- 40
2018-09-29 14:00:00 26.1 4 Sudeste 20 Sudeste 0 -- -- 50
2018-09-29 13:00:00 26.1 5 Sudeste 16 Este 0 -- -- 47
2018-09-29 12:00:00 25.4 3 Sudeste 9 Este 0 -- -- 53
2018-09-29 11:00:00 21.3 2 Sudeste 8 Sudeste 0 -- -- 67
2018-09-29 10:00:00 17 3 Nordeste 5 Nordeste 0 -- -- 79
2018-09-29 09:00:00 14.4 2 Noroeste 4 Noroeste 0 -- -- 89
2018-09-29 08:00:00 14.4 0 Calma 3 Oeste 0 -- -- 86
2018-09-29 07:00:00 14.7 0 Calma 4 Noroeste 0 -- -- 84
2018-09-29 06:00:00 15.1 0 Calma 5 Noroeste 0 -- -- 83
2018-09-29 05:00:00 15.5 0 Calma 4 Noroeste 0 -- -- 81
2018-09-29 04:00:00 16 0 Calma 3 Noroeste 0 -- -- 80
2018-09-29 03:00:00 16.5 0 Calma 2 Sudoeste 0 -- -- 77
2018-09-29 02:00:00 17 0 Calma 5 Noroeste 0 -- -- 74
2018-09-29 01:00:00 17.5 3 Noroeste 6 Noroeste 0 -- -- 72
2018-09-29 00:00:00 17.8 4 Noroeste 6 Noroeste 0 -- -- 64
2018-09-28 23:00:00 18.8 0 Calma 4 Noroeste 0 -- -- 58
2018-09-28 22:00:00 20.1 0 Calma 7 Oeste 0 -- -- 50
2018-09-28 21:00:00 22.1 5 Noroeste 7 Noroeste 0 -- -- 44
2018-09-28 20:00:00 24.5 3 Norte 12 Este 0 -- -- 38
2018-09-28 19:00:00 25.6 3 Sudeste 19 Nordeste 0 -- -- 39
2018-09-28 18:00:00 25.9 9 Este 20 Nordeste 0 -- -- 37
2018-09-28 17:00:00 25.1 7 Este 15 Este 0 -- -- 42
2018-09-28 16:00:00 24.2 7 Nordeste 21 Nordeste 0 -- -- 49
2018-09-28 15:00:00 24.3 5 Este 16 Este 0 -- -- 52
2018-09-28 14:00:00 23.8 8 Este 18 Este 0 -- -- 51
2018-09-28 13:00:00 23.7 8 Sudeste 20 Sudeste 0 -- -- 60
2018-09-28 12:00:00 25.1 5 Este 14 Nordeste 0 -- -- 57
2018-09-28 11:00:00 22.1 7 Este 13 Este 0 -- -- 64
2018-09-28 10:00:00 18 4 Este 10 Este 0 -- -- 80
2018-09-28 09:00:00 15.3 0 Calma 2 Oeste 0 -- -- 90
2018-09-28 08:00:00 15.1 0 Calma -- -- 0 -- -- 87
2018-09-28 07:00:00 15.3 0 Calma 4 Noroeste 0 -- -- 85
2018-09-28 06:00:00 15.7 0 Calma -- -- 0 -- -- 83
2018-09-28 05:00:00 16.2 0 Calma -- -- 0 -- -- 80
2018-09-28 04:00:00 16.9 0 Calma -- -- 0 -- -- 78
2018-09-28 03:00:00 17.6 0 Calma -- -- 0 -- -- 75
2018-09-28 02:00:00 18.6 0 Calma 4 Noroeste 0 -- -- 71
2018-09-28 01:00:00 20.1 3 Noroeste 6 Sudoeste 0 -- -- 65
2018-09-28 00:00:00 20.9 0 Calma 4 Sur 0 -- -- 64
2018-09-27 23:00:00 21.7 0 Calma 3 Nordeste 0 -- -- 60
2018-09-27 22:00:00 23 0 Calma 4 Nordeste 0 -- -- 57
2018-09-27 21:00:00 23.7 0 Calma 9 Noroeste 0 -- -- 54
2018-09-27 20:00:00 24.8 4 Noroeste 14 Nordeste 0 -- -- 51
2018-09-27 19:00:00 26.7 7 Este 20 Este 0 -- -- 44
2018-09-27 18:00:00 26.5 6 Sudeste 21 Nordeste 0 -- -- 44
2018-09-27 17:00:00 25.8 8 Este 19 Este 0 -- -- 46
2018-09-27 16:00:00 26.2 6 Este 16 Este 0 -- -- 48
2018-09-27 15:00:00 26 5 Este 19 Este 0 -- -- 51
2018-09-27 14:00:00 25.6 5 Este 19 Sudeste 0 -- -- 54
2018-09-27 13:00:00 25.6 5 Sudeste 21 Nordeste 0 -- -- 56
2018-09-27 12:00:00 25.1 8 Nordeste 20 Este 0 -- -- 59
2018-09-27 11:00:00 22.6 6 Este 17 Este 0 -- -- 71
2018-09-27 10:00:00 19.4 4 Este 11 Este 0 -- -- 86
2018-09-27 09:00:00 17.7 4 Nordeste 10 Este 0 -- -- 89
2018-09-27 08:00:00 16.9 0 Calma 5 Este 0 -- -- 90
2018-09-27 07:00:00 17.1 0 Calma 3 Este 0 -- -- 88
2018-09-27 06:00:00 17.5 0 Calma 6 Este 0 -- -- 87
2018-09-27 05:00:00 17.3 2 Nordeste 6 Este 0 -- -- 89
2018-09-27 04:00:00 17.3 3 Noroeste 5 Noroeste 0 -- -- 86
2018-09-27 03:00:00 17.7 0 Calma 3 Este 0 -- -- 86
2018-09-27 02:00:00 -- 0 Calma 4 Nordeste 0 -- -- --
2018-09-27 01:00:00 18.5 0 Calma 9 Noroeste 0 -- -- 82
2018-09-27 00:00:00 19.1 3 Noroeste 6 Noroeste 0.2 -- -- 84
2018-09-26 23:00:00 19.3 0 Calma 19 Sudeste 0.4 -- -- 83
2018-09-26 22:00:00 19.8 5 Este 42 Este 0.2 -- -- 74
2018-09-26 21:00:00 24.7 6 Sudeste 14 Sudeste 0 -- -- 54
2018-09-26 20:00:00 25.9 3 Sudeste 20 Sudeste 0 -- -- 51
2018-09-26 19:00:00 27.4 7 Sudeste 24 Sudeste 0 -- -- 48
2018-09-26 18:00:00 28.3 9 Sudeste 25 Este 0 -- -- 45
2018-09-26 17:00:00 28.2 9 Sudeste 28 Este 0 -- -- 47
2018-09-26 16:00:00 27.9 13 Este 29 Este 0 -- -- 48
2018-09-26 15:00:00 27.8 14 Sudeste 28 Sudeste 0 -- -- 48
2018-09-26 14:00:00 27.2 10 Sudeste 27 Sudeste 0 -- -- 52
2018-09-26 13:00:00 27.1 7 Sudeste 26 Este 0 -- -- 54
2018-09-26 12:00:00 26.1 13 Sudeste 25 Sudeste 0 -- -- 57
2018-09-26 11:00:00 23.5 9 Sudeste 22 Este 0 -- -- 65
2018-09-26 10:00:00 20.5 5 Este 10 Nordeste 0 -- -- 73
2018-09-26 09:00:00 18.9 4 Sudeste 10 Este 0 -- -- 76
2018-09-26 08:00:00 18.7 3 Este 9 Este 0 -- -- 74
2018-09-26 07:00:00 18.1 0 Calma 3 Sudeste 0 -- -- 68
2018-09-26 06:00:00 18.1 0 Calma 3 Noroeste 0 -- -- 68
2018-09-26 05:00:00 18.9 0 Calma 4 Noroeste 0 -- -- 65
2018-09-26 04:00:00 20.3 2 Noroeste 5 Noroeste 0 -- -- 60
2018-09-26 03:00:00 21.8 0 Calma 12 Oeste 0 -- -- 57
2018-09-26 02:00:00 23.1 7 Oeste 13 Sudoeste 0 -- -- 53
2018-09-26 01:00:00 23.6 7 Oeste 16 Oeste 0 -- -- 51
2018-09-26 00:00:00 23.8 7 Oeste 17 Oeste 0 -- -- 49
2018-09-25 23:00:00 24.8 11 Oeste 20 Oeste 0 -- -- 47
2018-09-25 22:00:00 25.7 9 Oeste 19 Sudoeste 0 -- -- 45
2018-09-25 21:00:00 26.2 6 Sudoeste 15 Oeste 0 -- -- 40
2018-09-25 20:00:00 28.5 0 Calma 10 Sur 0 -- -- 31
2018-09-25 19:00:00 30.6 3 Sur 18 Sudoeste 0 -- -- 29
2018-09-25 18:00:00 31.5 5 Sur 15 Sudeste 0 -- -- 27
2018-09-25 17:00:00 31.5 4 Sur 19 Sudeste 0 -- -- 29
2018-09-25 16:00:00 31.5 9 Sudeste 20 Este 0 -- -- 28
2018-09-25 15:00:00 31.6 5 Sudeste 18 Este 0 -- -- 28
2018-09-25 14:00:00 31 7 Sudeste 18 Sur 0 -- -- 31
2018-09-25 13:00:00 31.2 5 Este 16 Este 0 -- -- 30
2018-09-25 12:00:00 30.2 5 Sudeste 15 Sudeste 0 -- -- 34
2018-09-25 11:00:00 27.2 4 Sudeste 11 Sudeste 0 -- -- 40
2018-09-25 10:00:00 22.3 3 Sudeste 5 Sudeste 0 -- -- 54
2018-09-25 09:00:00 18.9 0 Calma 5 Noroeste 0 -- -- 57
2018-09-25 08:00:00 18.6 0 Calma 6 Noroeste 0 -- -- 55
2018-09-25 07:00:00 19.1 0 Calma 4 Noroeste 0 -- -- 54
2018-09-25 06:00:00 20.3 2 Oeste 5 Sudeste 0 -- -- 49
2018-09-25 05:00:00 22.1 0 Calma 14 Oeste 0 -- -- 44
2018-09-25 04:00:00 23.4 8 Oeste 14 Oeste 0 -- -- 39
2018-09-25 03:00:00 23.4 6 Oeste 14 Oeste 0 -- -- 38
2018-09-25 02:00:00 24.3 7 Oeste 17 Oeste 0 -- -- 38
2018-09-25 01:00:00 24.2 8 Oeste 16 Sudoeste 0 -- -- 38
2018-09-25 00:00:00 23 0 Calma 5 Sudoeste 0 -- -- 46
2018-09-24 23:00:00 23.9 2 Oeste 5 Sudoeste 0 -- -- 46
2018-09-24 22:00:00 25.2 2 Sudoeste 5 Oeste 0 -- -- 40
2018-09-24 21:00:00 26.6 3 Sudoeste 5 Sudoeste 0 -- -- 37
2018-09-24 20:00:00 29.3 2 Sudoeste 10 Sudeste 0 -- -- 35
2018-09-24 19:00:00 31.4 2 Sudeste 16 Sudeste 0 -- -- 30
2018-09-24 18:00:00 32.1 3 Sur 13 Norte 0 -- -- 30
2018-09-24 17:00:00 32.2 5 Sudeste 23 Sudeste 0 -- -- 28
2018-09-24 16:00:00 32.2 7 Nordeste 22 Este 0 -- -- 29
2018-09-24 15:00:00 32.5 7 Nordeste 19 Este 0 -- -- 27
2018-09-24 14:00:00 31.8 6 Sudeste 16 Este 0 -- -- 28
2018-09-24 13:00:00 31.5 4 Sudeste 15 Sudeste 0 -- -- 30
2018-09-24 12:00:00 30.3 4 Sudeste 15 Este 0 -- -- 31
2018-09-24 11:00:00 27.3 5 Este 12 Este 0 -- -- 36
2018-09-24 10:00:00 22.2 0 Calma 3 Noroeste 0 -- -- 47
2018-09-24 09:00:00 18.7 0 Calma 3 Oeste 0 -- -- 63
2018-09-24 08:00:00 18.6 2 Noroeste 4 Noroeste 0 -- -- 61
2018-09-24 07:00:00 19.4 0 Calma 4 Norte 0 -- -- 57
2018-09-24 06:00:00 20.2 0 Calma 3 Sudoeste 0 -- -- 56
2018-09-24 05:00:00 21.3 0 Calma 6 Noroeste 0 -- -- 51
2018-09-24 04:00:00 22.3 5 Noroeste 15 Sudoeste 0 -- -- 48
2018-09-24 03:00:00 20.8 0 Calma 3 Oeste 0 -- -- 54
2018-09-24 02:00:00 21.3 0 Calma 7 Noroeste 0 -- -- 53
2018-09-24 01:00:00 22.1 5 Noroeste 7 Noroeste 0 -- -- 49
2018-09-24 00:00:00 22.5 0 Calma 5 Sudoeste 0 -- -- 50
2018-09-23 23:00:00 23.4 2 Oeste 6 Noroeste 0 -- -- 49
2018-09-23 22:00:00 24.9 0 Calma 4 Sudoeste 0 -- -- 45
2018-09-23 21:00:00 26.6 0 Calma 8 Sur 0 -- -- 39
2018-09-23 20:00:00 29.2 3 Sudoeste 10 Este 0 -- -- 37
2018-09-23 19:00:00 31.4 2 Sur 16 Sudeste 0 -- -- 32
2018-09-23 18:00:00 32.1 5 Este 21 Este 0 -- -- 27
2018-09-23 17:00:00 31.9 7 Sudeste 25 Este 0 -- -- 28
2018-09-23 16:00:00 32 8 Nordeste 27 Nordeste 0 -- -- 27
2018-09-23 15:00:00 31.9 4 Sur 19 Sur 0 -- -- 27
2018-09-23 14:00:00 31.1 3 Este 15 Este 0 -- -- 32
2018-09-23 13:00:00 31.3 2 Norte 10 Este 0 -- -- 28
2018-09-23 12:00:00 30.3 3 Este 11 Este 0 -- -- 31
2018-09-23 11:00:00 26.7 5 Este 11 Este 0 -- -- 39
2018-09-23 10:00:00 21.6 0 Calma 3 Sudeste 0 -- -- 55
2018-09-23 09:00:00 18.5 0 Calma -- -- 0 -- -- 65
2018-09-23 08:00:00 18.3 0 Calma 4 Oeste 0 -- -- 62
2018-09-23 07:00:00 18.4 2 Noroeste 4 Noroeste 0 -- -- 61
2018-09-23 06:00:00 18.7 0 Calma 5 Noroeste 0 -- -- 62
2018-09-23 05:00:00 19 2 Noroeste 5 Noroeste 0 -- -- 60
2018-09-23 04:00:00 19.8 0 Calma 4 Noroeste 0 -- -- 60
2018-09-23 03:00:00 20.5 0 Calma 5 Sudeste 0 -- -- 56
2018-09-23 02:00:00 21 2 Oeste 6 Oeste 0 -- -- 52
2018-09-23 01:00:00 21.5 4 Noroeste 6 Noroeste 0 -- -- 49
2018-09-23 00:00:00 22.4 3 Noroeste 6 Sudoeste 0 -- -- 50
2018-09-22 23:00:00 22.9 0 Calma 5 Sudoeste 0 -- -- 47
2018-09-22 22:00:00 24 0 Calma 2 Norte 0 -- -- 47
2018-09-22 21:00:00 26.3 0 Calma 2 Sudoeste 0 -- -- 40
2018-09-22 20:00:00 28.9 0 Calma 12 Sudeste 0 -- -- 35
2018-09-22 19:00:00 30.8 2 Sur 15 Sudeste 0 -- -- 33
2018-09-22 18:00:00 31.7 6 Sudeste 21 Sudeste 0 -- -- 31
2018-09-22 17:00:00 31.5 5 Sudeste 24 Sudeste 0 -- -- 30
2018-09-22 16:00:00 31.8 7 Sudeste 22 Sudeste 0 -- -- 30
2018-09-22 15:00:00 32 4 Sur 21 Este 0 -- -- 32
2018-09-22 14:00:00 31.4 7 Sudeste 19 Sudeste 0 -- -- 34
2018-09-22 13:00:00 31.6 5 Sudeste 18 Sudeste 0 -- -- 35
2018-09-22 12:00:00 30.6 4 Sudeste 14 Sudeste 0 -- -- 35
2018-09-22 11:00:00 27.1 0 Calma 5 Sudeste 0 -- -- 43
2018-09-22 10:00:00 22.2 0 Calma 4 Nordeste 0 -- -- 58
2018-09-22 09:00:00 18.6 0 Calma -- -- 0 -- -- 72
2018-09-22 08:00:00 18.3 0 Calma -- -- 0 -- -- 70
2018-09-22 07:00:00 18.3 0 Calma -- -- 0 -- -- 69
2018-09-22 06:00:00 18.6 0 Calma -- -- 0 -- -- 68
2018-09-22 05:00:00 18.5 0 Calma -- -- 0 -- -- 68
2018-09-22 04:00:00 18.7 0 Calma -- -- 0 -- -- 67
2018-09-22 03:00:00 19 0 Calma 2 Norte 0 -- -- 66
2018-09-22 02:00:00 19.6 0 Calma 3 Sudoeste 0 -- -- 65
2018-09-22 01:00:00 20.8 0 Calma 4 Este 0 -- -- 60
2018-09-22 00:00:00 21.9 0 Calma 6 Norte 0 -- -- 57
2018-09-21 23:00:00 23.6 2 Norte 16 Sudoeste 0 -- -- 49
2018-09-21 22:00:00 23.8 3 Sudoeste 8 Sudoeste 0 -- -- 44
2018-09-21 21:00:00 24.6 3 Sudoeste 6 Sudoeste 0 -- -- 43
2018-09-21 20:00:00 27 0 Calma 10 Sudeste 0 -- -- 39
2018-09-21 19:00:00 28.9 4 Sudeste 14 Sudeste 0 -- -- 29
2018-09-21 18:00:00 29.5 4 Sudeste 12 Sudeste 0 -- -- 33
2018-09-21 17:00:00 29.4 6 Sudeste 18 Sudeste 0 -- -- 35
2018-09-21 16:00:00 29.6 6 Sudeste 24 Este 0 -- -- 37
2018-09-21 15:00:00 30 6 Sudeste 16 Sudeste 0 -- -- 39
2018-09-21 14:00:00 29.1 5 Sudeste 15 Sudeste 0 -- -- 40
2018-09-21 13:00:00 29.5 4 Sur 9 Sudeste 0 -- -- 39
2018-09-21 12:00:00 28.5 3 Sur 8 Este 0 -- -- 40
2018-09-21 11:00:00 24.9 3 Sudeste 6 Este 0 -- -- 46
2018-09-21 10:00:00 19.9 0 Calma 3 Noroeste 0 -- -- 62
2018-09-21 09:00:00 17 0 Calma 5 Noroeste 0 -- -- 70
2018-09-21 08:00:00 17.4 0 Calma 2 Norte 0 -- -- 72
2018-09-21 07:00:00 17.9 0 Calma 4 Noroeste 0 -- -- 68
2018-09-21 06:00:00 18.3 0 Calma 4 Oeste 0 -- -- 70
2018-09-21 05:00:00 19.2 0 Calma 7 Noroeste 0 -- -- 63
2018-09-21 04:00:00 19.8 3 Noroeste 8 Noroeste 0 -- -- 63
2018-09-21 03:00:00 20.4 3 Noroeste 8 Oeste 0 -- -- 71
2018-09-21 02:00:00 21.5 5 Oeste 14 Oeste 0 -- -- 71
2018-09-21 01:00:00 21.9 8 Oeste 15 Oeste 0 -- -- 70
2018-09-21 00:00:00 22.5 9 Oeste 21 Oeste 0 -- -- 70
2018-09-20 23:00:00 22.8 7 Oeste 17 Sudoeste 0 -- -- 68
2018-09-20 22:00:00 24.2 0 Calma 5 Norte 0 -- -- 60
2018-09-20 21:00:00 26.4 4 Norte 15 Noroeste 0 -- -- 51
2018-09-20 20:00:00 28.1 3 Noroeste 13 Sudoeste 0 -- -- 48
2018-09-20 19:00:00 29.2 8 Sudoeste 15 Oeste 0 -- -- 42
2018-09-20 18:00:00 28.8 2 Sur 12 Sudeste 0 -- -- 42
2018-09-20 17:00:00 28.8 4 Sur 14 Sudoeste 0 -- -- 42
2018-09-20 16:00:00 29 3 Sur 13 Sudoeste 0 -- -- 45
2018-09-20 15:00:00 28.1 3 Noroeste 14 Este 0 -- -- 48
2018-09-20 14:00:00 28.6 4 Este 15 Sudoeste 0 -- -- 51
2018-09-20 13:00:00 28.7 4 Sudoeste 10 Sudoeste 0 -- -- 49
2018-09-20 12:00:00 27.8 3 Sur 12 Sudoeste 0 -- -- 52
2018-09-20 11:00:00 24.3 3 Sudeste 8 Este 0 -- -- 62
2018-09-20 10:00:00 20 0 Calma -- -- 0 -- -- 75
2018-09-20 09:00:00 18 0 Calma -- -- 0 -- -- 85
2018-09-20 08:00:00 17.8 0 Calma -- -- 0 -- -- 82
2018-09-20 07:00:00 18.4 0 Calma 2 Norte 0 -- -- 80
2018-09-20 06:00:00 19.2 0 Calma 3 Noroeste 0 -- -- 76
2018-09-20 05:00:00 20.3 0 Calma 10 Oeste 0 -- -- 72
2018-09-20 04:00:00 21.4 6 Oeste 12 Oeste 0 -- -- 66
2018-09-20 03:00:00 21.8 8 Oeste 18 Noroeste 0 -- -- 65
2018-09-20 02:00:00 20.6 3 Oeste 11 Noroeste 0 -- -- 73
2018-09-20 01:00:00 21.9 0 Calma 9 Oeste 0 -- -- 69
2018-09-20 00:00:00 23.4 7 Oeste 17 Oeste 0 -- -- 62
2018-09-19 23:00:00 24.2 9 Oeste 15 Oeste 0 -- -- 59
2018-09-19 22:00:00 24.7 8 Oeste 13 Sudoeste 0 -- -- 57
2018-09-19 21:00:00 25.3 5 Sudoeste 9 Oeste 0 -- -- 54
2018-09-19 20:00:00 27.2 0 Calma 11 Este 0 -- -- 52
2018-09-19 19:00:00 28.8 3 Sudeste 14 Este 0 -- -- 47
2018-09-19 18:00:00 29.3 4 Sudeste 14 Sudeste 0 -- -- 42
2018-09-19 17:00:00 29.2 3 Sudeste 12 Sudoeste 0 -- -- 42
2018-09-19 16:00:00 29.2 5 Sudeste 17 Este 0 -- -- 45
2018-09-19 15:00:00 28.7 5 Nordeste 17 Nordeste 0 -- -- 42
2018-09-19 14:00:00 29.1 5 Sudeste 17 Este 0 -- -- 41
2018-09-19 13:00:00 29.7 3 Este 15 Sudeste 0 -- -- 39
2018-09-19 12:00:00 28.7 5 Nordeste 13 Sudeste 0 -- -- 43
2018-09-19 11:00:00 25 4 Sudeste 6 Este 0 -- -- 53
2018-09-19 10:00:00 20 0 Calma 2 Sudoeste 0 -- -- 72
2018-09-19 09:00:00 17.1 0 Calma 4 Noroeste 0 -- -- 79
2018-09-19 08:00:00 16.9 2 Noroeste 6 Noroeste 0 -- -- 81
2018-09-19 07:00:00 17.8 3 Noroeste 8 Noroeste 0 -- -- 77
2018-09-19 06:00:00 18.1 5 Noroeste 8 Norte 0 -- -- 75
2018-09-19 05:00:00 18.8 3 Noroeste 10 Norte 0 -- -- 69
2018-09-19 04:00:00 18.8 5 Norte 11 Nordeste 0 -- -- 68
2018-09-19 03:00:00 19.3 4 Oeste 15 Noroeste 0 -- -- 68
2018-09-19 02:00:00 19 9 Noroeste 22 Norte 0 -- -- 71
2018-09-19 01:00:00 18.7 3 Noroeste 12 Norte 0 -- -- 79
2018-09-19 00:00:00 18.5 4 Noroeste 6 Noroeste 0 -- -- 86
2018-09-18 23:00:00 19.6 3 Noroeste 4 Noroeste 0 -- -- 88
2018-09-18 22:00:00 20.7 2 Oeste 4 Oeste 0 -- -- 85
2018-09-18 21:00:00 21.8 0 Calma 9 Este 0 -- -- 83
2018-09-18 20:00:00 22.6 3 Noroeste 8 Sudoeste 0.2 -- -- 85
2018-09-18 19:00:00 22.3 6 Oeste 11 Sudoeste 0 -- -- 82
2018-09-18 18:00:00 22 3 Oeste 18 Oeste 0 -- -- 94
2018-09-18 17:00:00 20.2 11 Oeste 22 Oeste 3.4 -- -- 87
2018-09-18 16:00:00 23.4 4 Sudoeste 30 Oeste 8.6 -- -- 76
2018-09-18 15:00:00 29.1 5 Sudoeste 18 Sudoeste 0 -- -- 51
2018-09-18 14:00:00 28.1 6 Sudoeste 19 Oeste 0 -- -- 53
2018-09-18 13:00:00 28.2 4 Sudoeste 13 Sudoeste 0 -- -- 54
2018-09-18 12:00:00 26.9 3 Sur 15 Sudoeste 0 -- -- 59
2018-09-18 11:00:00 23 3 Sudeste 7 Sudeste 0 -- -- 76
2018-09-18 10:00:00 19.2 0 Calma 4 Sudeste 0 -- -- 96
2018-09-18 09:00:00 16.8 0 Calma -- -- 0 -- -- 96
2018-09-18 08:00:00 16.5 0 Calma -- -- 0 -- -- 94
2018-09-18 07:00:00 16.6 0 Calma -- -- 0 -- -- 94
2018-09-18 06:00:00 16.6 0 Calma 2 Oeste 0 -- -- 92
2018-09-18 05:00:00 16.9 2 Noroeste 5 Noroeste 0 -- -- 93
2018-09-18 04:00:00 17.3 2 Noroeste 4 Noroeste 0 -- -- 92
2018-09-18 03:00:00 17.6 0 Calma 6 Noroeste 0 -- -- 90
2018-09-18 02:00:00 17.9 2 Noroeste 9 Oeste 0 -- -- 91
2018-09-18 01:00:00 18.3 0 Calma 8 Oeste 0 -- -- 91
2018-09-18 00:00:00 18.4 4 Noroeste 8 Oeste 0 -- -- 92
2018-09-17 23:00:00 18.3 4 Oeste 12 Oeste 0 -- -- 91
2018-09-17 22:00:00 18.4 10 Oeste 14 Oeste 0 -- -- 89
2018-09-17 21:00:00 19.4 5 Oeste 10 Oeste 0.6 -- -- 89
2018-09-17 20:00:00 20.2 3 Sudeste 14 Oeste 4.6 -- -- 86
2018-09-17 19:00:00 22.8 10 Sudoeste 30 Sudoeste 8.4 -- -- 76
2018-09-17 18:00:00 26.9 2 Sudeste 13 Sudeste 0 -- -- 52
2018-09-17 17:00:00 28 4 Este 13 Sudoeste 0 -- -- 49
2018-09-17 16:00:00 27.1 4 Sudeste 22 Sudeste 0 -- -- 55
2018-09-17 15:00:00 28.2 6 Sudeste 21 Este 0 -- -- 52
2018-09-17 14:00:00 27.6 8 Sudeste 20 Sudeste 0 -- -- 53
2018-09-17 13:00:00 27.7 10 Sudeste 20 Este 0 -- -- 52
2018-09-17 12:00:00 27.1 7 Sudeste 21 Sudeste 0 -- -- 57
2018-09-17 11:00:00 24.8 7 Sudeste 16 Este 0 -- -- 63
2018-09-17 10:00:00 20.2 0 Calma 3 Sudeste 0 -- -- 82
2018-09-17 09:00:00 17.5 0 Calma -- -- 0 -- -- 91
2018-09-17 08:00:00 17 0 Calma 5 Noroeste 0 -- -- 87
2018-09-17 07:00:00 17.3 0 Calma 6 Este 0 -- -- 82
2018-09-17 06:00:00 17.6 0 Calma 6 Sudeste 0 -- -- 80
2018-09-17 05:00:00 17.7 0 Calma 2 Este 0 -- -- 77
2018-09-17 04:00:00 17.9 0 Calma 4 Noroeste 0 -- -- 75
2018-09-17 03:00:00 18.5 0 Calma 3 Oeste 0 -- -- 73
2018-09-17 02:00:00 18.9 0 Calma 2 Oeste 0 -- -- 72
2018-09-17 01:00:00 19.5 0 Calma 3 Noroeste 0 -- -- 70
2018-09-17 00:00:00 20.2 0 Calma 3 Noroeste 0 -- -- 68
2018-09-16 23:00:00 21.2 0 Calma 4 Noroeste 0 -- -- 65
2018-09-16 22:00:00 22.6 0 Calma 7 Sudoeste 0 -- -- 60
2018-09-16 21:00:00 23.9 0 Calma 7 Sudeste 0 -- -- 55
2018-09-16 20:00:00 26.1 3 Sudeste 15 Este 0 -- -- 49
2018-09-16 19:00:00 27.9 3 Sudeste 14 Sudeste 0 -- -- 44
2018-09-16 18:00:00 28.1 8 Este 23 Este 0 -- -- 44
2018-09-16 17:00:00 27.8 5 Sudeste 21 Sudeste 0 -- -- 46
2018-09-16 16:00:00 28 5 Sudeste 17 Este 0 -- -- 46
2018-09-16 15:00:00 28 3 Sur 15 Sudeste 0 -- -- 48
2018-09-16 14:00:00 27.2 5 Sudeste 16 Este 0 -- -- 53
2018-09-16 13:00:00 26.8 5 Sudeste 22 Sudeste 0 -- -- 57
2018-09-16 12:00:00 26.1 7 Sudeste 17 Este 0 -- -- 57
2018-09-16 11:00:00 23.4 5 Sudeste 17 Este 0 -- -- 69
2018-09-16 10:00:00 19.3 3 Este 8 Sudeste 0 -- -- 86
2018-09-16 09:00:00 16.3 0 Calma 3 Sudeste 0 -- -- 94
2018-09-16 08:00:00 15.5 0 Calma 4 Noroeste 0 -- -- 88
2018-09-16 07:00:00 15.6 0 Calma 4 Oeste 0 -- -- 85
2018-09-16 06:00:00 15.6 0 Calma 4 Noroeste 0 -- -- 83
2018-09-16 05:00:00 15.7 2 Noroeste 4 Noroeste 0 -- -- 81
2018-09-16 04:00:00 16.2 0 Calma 2 Noroeste 0 -- -- 80
2018-09-16 03:00:00 16.6 2 Noroeste 4 Noroeste 0 -- -- 77
2018-09-16 02:00:00 17.3 3 Noroeste 5 Noroeste 0 -- -- 75
2018-09-16 01:00:00 18 0 Calma 3 Oeste 0 -- -- 75
2018-09-16 00:00:00 18.8 2 Oeste 5 Noroeste 0 -- -- 71
2018-09-15 23:00:00 19.9 3 Noroeste 8 Sudoeste 0 -- -- 67
2018-09-15 22:00:00 20.7 5 Noroeste 9 Nordeste 0 -- -- 65
2018-09-15 21:00:00 22.8 6 Este 27 Sudeste 0 -- -- 61
2018-09-15 20:00:00 25.3 3 Sur 14 Sudeste 0 -- -- 50
2018-09-15 19:00:00 27.3 0 Calma 9 Sudeste 0 -- -- 46
2018-09-15 18:00:00 27.1 2 Sur 14 Nordeste 0 -- -- 46
2018-09-15 17:00:00 27.7 5 Nordeste 15 Nordeste 0 -- -- 43
2018-09-15 16:00:00 27.5 5 Nordeste 17 Nordeste 0 -- -- 47
2018-09-15 15:00:00 27.3 7 Nordeste 21 Norte 0 -- -- 46
2018-09-15 14:00:00 27.7 8 Norte 25 Nordeste 0 -- -- 45
2018-09-15 13:00:00 27.7 8 Nordeste 21 Este 0 -- -- 45
2018-09-15 12:00:00 26.5 5 Este 14 Este 0 -- -- 50
2018-09-15 11:00:00 22.5 0 Calma 8 Este 0 -- -- 64
2018-09-15 10:00:00 19 2 Noroeste 4 Noroeste 0 -- -- 80
2018-09-15 09:00:00 16.5 0 Calma 4 Noroeste 0 -- -- 88
2018-09-15 08:00:00 16.8 0 Calma 2 Sudoeste 0 -- -- 85
2018-09-15 07:00:00 17.1 0 Calma 4 Sudoeste 0 -- -- 84
2018-09-15 06:00:00 17.2 0 Calma 4 Sudoeste 0 -- -- 87
2018-09-15 05:00:00 17 0 Calma 5 Norte 0 -- -- 88
2018-09-15 04:00:00 17 0 Calma 4 Noroeste 0 -- -- 89
2018-09-15 03:00:00 16.9 0 Calma 4 Sudoeste 0 -- -- 90
2018-09-15 02:00:00 16.8 4 Norte 25 Oeste 0 -- -- 87
2018-09-15 01:00:00 16.8 14 Oeste 26 Oeste 0 -- -- 88
2018-09-15 00:00:00 17.2 4 Noroeste 18 Oeste 0.2 -- -- 88